createdAt,value
2019-02-11T00:02:06.043Z,1.57
2019-02-11T00:07:12.372Z,2.37
2019-02-11T00:12:19.008Z,3.07
2019-02-11T00:17:24.793Z,3.47
2019-02-11T00:22:30.493Z,1.90
2019-02-11T00:27:36.472Z,3.20
2019-02-11T00:32:45.304Z,1.60
2019-02-11T00:37:51.296Z,3.20
2019-02-11T00:42:57.745Z,2.67
2019-02-11T00:48:03.992Z,1.47
2019-02-11T00:53:10.467Z,3.17
2019-02-11T00:58:19.017Z,3.70
2019-02-11T01:03:25.777Z,3.60
2019-02-11T01:08:34.008Z,3.90
2019-02-11T01:13:40.445Z,7.40
2019-02-11T01:18:47.224Z,5.17
2019-02-11T01:24:08.573Z,6.37
2019-02-11T01:29:14.545Z,6.93
2019-02-11T01:34:20.356Z,4.80
2019-02-11T01:39:27.217Z,5.50
2019-02-11T01:44:34.456Z,11.03
2019-02-11T01:49:41.101Z,6.70
2019-02-11T01:54:46.498Z,7.50
2019-02-11T01:59:52.445Z,9.77
2019-02-11T02:05:01.080Z,10.30
2019-02-11T02:10:07.953Z,7.90
2019-02-11T02:15:14.706Z,6.67
2019-02-11T02:20:20.815Z,8.13
2019-02-11T02:25:26.089Z,8.27
2019-02-11T02:30:32.469Z,5.17
2019-02-11T02:35:40.075Z,6.20
2019-02-11T02:40:47.772Z,3.53
2019-02-11T02:45:53.100Z,5.17
2019-02-11T02:51:00.153Z,1.97
2019-02-11T02:56:06.084Z,2.63
2019-02-11T03:01:13.006Z,2.70
2019-02-11T03:06:18.600Z,3.73
2019-02-11T03:11:25.608Z,2.50
2019-02-11T03:16:32.088Z,2.37
2019-02-11T03:21:38.421Z,2.50
2019-02-11T03:26:44.437Z,4.60
2019-02-11T03:31:49.992Z,4.27
2019-02-11T03:36:55.877Z,5.33
2019-02-11T03:42:01.874Z,7.80
2019-02-11T03:47:07.786Z,3.87
2019-02-11T03:52:14.904Z,5.57
2019-02-11T03:57:20.375Z,8.57
2019-02-11T04:02:28.549Z,9.90
2019-02-11T04:07:35.362Z,10.23
2019-02-11T04:12:40.833Z,12.03
2019-02-11T04:17:48.287Z,10.13
2019-02-11T04:22:55.071Z,8.50
2019-02-11T04:28:03.440Z,7.63
2019-02-11T04:33:09.811Z,10.07
2019-02-11T04:38:15.886Z,7.43
2019-02-11T04:43:23.162Z,6.03
2019-02-11T04:48:28.866Z,7.07
2019-02-11T04:53:35.174Z,7.87
2019-02-11T04:58:53.490Z,6.53
2019-02-11T05:04:00.908Z,8.17
2019-02-11T05:09:07.885Z,6.93
2019-02-11T05:14:14.010Z,6.03
2019-02-11T05:19:19.956Z,5.77
2019-02-11T05:24:27.402Z,6.37
2019-02-11T05:29:33.321Z,5.13
2019-02-11T05:34:39.242Z,6.77
2019-02-11T05:39:46.009Z,4.83
2019-02-11T05:44:54.035Z,7.37
2019-02-11T05:49:58.565Z,4.87
2019-02-11T05:55:03.440Z,4.90
2019-02-11T06:00:11.363Z,4.03
2019-02-11T06:05:18.004Z,6.47
2019-02-11T06:10:23.726Z,5.00
2019-02-11T06:15:29.423Z,6.67
2019-02-11T06:20:35.075Z,8.43
2019-02-11T06:25:41.318Z,6.13
2019-02-11T06:30:48.245Z,6.77
2019-02-11T06:35:54.396Z,8.30
2019-02-11T06:40:59.694Z,11.20
2019-02-11T06:46:05.576Z,15.13
2019-02-11T06:51:11.092Z,10.13
2019-02-11T06:56:18.533Z,13.83
2019-02-11T07:01:24.699Z,11.73
2019-02-11T07:06:33.021Z,16.97
2019-02-11T07:11:38.684Z,17.07
2019-02-11T07:16:45.502Z,19.53
2019-02-11T07:21:51.118Z,17.97
2019-02-11T07:26:56.954Z,14.40
2019-02-11T07:32:02.984Z,13.00
2019-02-11T07:37:08.966Z,17.00
2019-02-11T07:42:24.992Z,18.23
2019-02-11T07:47:31.200Z,15.17
2019-02-11T07:52:36.838Z,19.60
2019-02-11T07:57:43.149Z,12.40
2019-02-11T08:02:48.264Z,16.57
2019-02-11T08:07:54.343Z,12.27
2019-02-11T08:13:02.038Z,13.90
2019-02-11T08:18:09.173Z,14.97
2019-02-11T08:23:14.993Z,15.37
2019-02-11T08:28:22.296Z,14.80
2019-02-11T08:33:30.640Z,13.80
2019-02-11T08:38:40.169Z,11.67
2019-02-11T08:43:46.600Z,15.73
2019-02-11T08:48:53.042Z,16.57
2019-02-11T08:53:59.319Z,16.43
2019-02-11T08:59:06.064Z,14.40
2019-02-11T09:04:18.800Z,14.10
2019-02-11T09:09:19.928Z,17.00
2019-02-11T09:14:25.565Z,15.93
2019-02-11T09:19:32.589Z,11.50
2019-02-11T09:24:38.900Z,12.90
2019-02-11T09:29:45.259Z,14.17
2019-02-11T09:34:51.876Z,14.17
2019-02-11T09:39:58.023Z,12.77
2019-02-11T09:45:03.496Z,17.17
2019-02-11T09:50:19.575Z,12.47
2019-02-11T09:55:29.734Z,11.27
2019-02-11T10:00:34.783Z,12.73
2019-02-11T10:05:42.182Z,11.07
2019-02-11T10:10:47.927Z,12.53
2019-02-11T10:15:52.491Z,9.00
2019-02-11T10:20:58.293Z,10.43
2019-02-11T10:26:05.850Z,9.87
2019-02-11T10:31:12.321Z,13.60
2019-02-11T10:36:18.662Z,12.70
2019-02-11T10:41:25.069Z,12.10
2019-02-11T10:46:30.201Z,8.23
2019-02-11T10:51:35.691Z,13.67
2019-02-11T10:56:42.133Z,10.20
2019-02-11T11:01:48.347Z,12.07
2019-02-11T11:06:54.149Z,10.83
2019-02-11T11:12:00.434Z,13.30
2019-02-11T11:17:08.522Z,11.93
2019-02-11T11:22:15.372Z,11.27
2019-02-11T11:27:25.264Z,12.43
2019-02-11T11:32:31.103Z,11.07
2019-02-11T11:37:36.827Z,10.50
2019-02-11T11:42:43.114Z,11.20
2019-02-11T11:47:49.319Z,12.93
2019-02-11T11:52:57.121Z,12.07
2019-02-11T11:58:02.616Z,12.03
2019-02-11T12:03:10.567Z,12.30
2019-02-11T12:08:17.044Z,9.50
2019-02-11T12:13:25.841Z,13.97
2019-02-11T12:18:33.431Z,10.77
2019-02-11T12:23:40.131Z,7.87
2019-02-11T12:28:46.290Z,10.97
2019-02-11T12:33:53.855Z,12.40
2019-02-11T12:39:00.251Z,12.27
2019-02-11T12:44:06.040Z,10.13
2019-02-11T12:49:14.069Z,7.57
2019-02-11T12:54:20.093Z,11.97
2019-02-11T12:59:26.139Z,11.37
2019-02-11T13:04:32.013Z,13.37
2019-02-11T13:09:38.351Z,11.90
2019-02-11T13:14:44.606Z,8.50
2019-02-11T13:20:06.775Z,9.13
2019-02-11T13:24:59.424Z,8.20
2019-02-11T13:30:06.079Z,9.67
2019-02-11T13:35:13.298Z,6.53
2019-02-11T13:40:19.806Z,8.10
2019-02-11T13:45:26.164Z,5.83
2019-02-11T13:50:32.551Z,5.63
2019-02-11T13:55:38.577Z,9.27
2019-02-11T14:00:49.913Z,5.67
2019-02-11T14:05:52.421Z,10.83
2019-02-11T14:10:58.384Z,6.77
2019-02-11T14:16:04.285Z,9.07
2019-02-11T14:21:09.425Z,7.67
2019-02-11T14:26:14.966Z,11.37
2019-02-11T14:31:21.404Z,9.40
2019-02-11T14:36:28.626Z,6.43
2019-02-11T14:41:37.007Z,5.83
2019-02-11T14:46:42.468Z,8.10
2019-02-11T14:51:48.231Z,9.67
2019-02-11T14:56:54.521Z,9.03
2019-02-11T15:01:59.848Z,10.57
2019-02-11T15:07:06.074Z,8.60
2019-02-11T15:12:12.250Z,8.10
2019-02-11T15:17:18.538Z,10.17
2019-02-11T15:22:25.049Z,6.70
2019-02-11T15:27:31.179Z,14.87
2019-02-11T15:32:36.960Z,10.13
2019-02-11T15:37:42.433Z,6.20
2019-02-11T15:42:47.966Z,7.67
2019-02-11T15:47:53.637Z,9.53
2019-02-11T15:52:59.610Z,5.27
2019-02-11T15:58:06.517Z,12.57
2019-02-11T16:03:12.828Z,12.57
2019-02-11T16:08:18.882Z,8.17
2019-02-11T16:13:24.285Z,9.30
2019-02-11T16:18:30.574Z,11.50
2019-02-11T16:23:36.743Z,10.50
2019-02-11T16:28:42.544Z,11.03
2019-02-11T16:33:47.822Z,6.73
2019-02-11T16:38:55.721Z,9.93
2019-02-11T16:44:01.221Z,8.77
2019-02-11T16:49:08.326Z,8.60
2019-02-11T16:54:14.475Z,8.13
2019-02-11T16:59:20.842Z,10.30
2019-02-11T17:04:26.729Z,6.90
2019-02-11T17:09:33.918Z,8.20
2019-02-11T17:14:39.778Z,6.93
2019-02-11T17:19:46.621Z,9.03
2019-02-11T17:24:52.288Z,10.17
2019-02-11T17:29:57.897Z,7.30
2019-02-11T17:35:04.319Z,7.97
2019-02-11T17:40:11.787Z,11.17
2019-02-11T17:45:20.647Z,11.03
2019-02-11T17:50:25.810Z,11.23
2019-02-11T17:55:30.821Z,11.60
2019-02-11T18:00:44.841Z,12.50
2019-02-11T18:05:51.426Z,13.33
2019-02-11T18:11:08.810Z,12.83
2019-02-11T18:16:14.693Z,9.67
2019-02-11T18:21:21.283Z,11.00
2019-02-11T18:26:26.568Z,10.30
2019-02-11T18:31:31.921Z,7.87
2019-02-11T18:36:38.676Z,12.80
2019-02-11T18:41:44.928Z,11.97
2019-02-11T18:46:50.956Z,11.23
2019-02-11T18:51:56.436Z,10.83
2019-02-11T18:57:01.865Z,10.07
2019-02-11T19:02:08.266Z,11.87
2019-02-11T19:07:13.418Z,10.43
2019-02-11T19:12:20.395Z,14.20
2019-02-11T19:17:25.686Z,15.97
2019-02-11T19:22:32.001Z,10.00
2019-02-11T19:27:37.515Z,9.17
2019-02-11T19:32:43.756Z,12.47
2019-02-11T19:37:50.172Z,12.90
2019-02-11T19:42:56.100Z,10.87
2019-02-11T19:48:01.891Z,12.90
2019-02-11T19:53:08.172Z,16.07
2019-02-11T19:58:15.038Z,16.67
2019-02-11T20:03:21.450Z,14.27
2019-02-11T20:08:28.416Z,15.03
2019-02-11T20:13:34.321Z,11.40
2019-02-11T20:18:39.681Z,14.03
2019-02-11T20:23:47.574Z,11.67
2019-02-11T20:28:52.902Z,17.80
2019-02-11T20:33:58.724Z,13.83
2019-02-11T20:39:05.325Z,13.07
2019-02-11T20:44:11.690Z,11.47
2019-02-11T20:49:16.707Z,12.33
2019-02-11T20:54:22.843Z,9.10
2019-02-11T20:59:28.848Z,11.53
2019-02-11T21:04:34.763Z,11.53
2019-02-11T21:09:40.112Z,12.40
2019-02-11T21:14:48.151Z,10.13
2019-02-11T21:19:53.564Z,14.30
2019-02-11T21:24:59.835Z,14.20
2019-02-11T21:30:06.627Z,14.67
2019-02-11T21:35:13.944Z,13.83
2019-02-11T21:40:20.839Z,12.70
2019-02-11T21:45:28.571Z,10.77
2019-02-11T21:50:34.808Z,11.93
2019-02-11T21:55:41.820Z,10.57
2019-02-11T22:00:47.869Z,16.53
2019-02-11T22:05:53.789Z,10.80
2019-02-11T22:10:59.133Z,9.67
2019-02-11T22:16:05.293Z,9.50
2019-02-11T22:21:11.069Z,12.17
2019-02-11T22:26:16.592Z,12.17
2019-02-11T22:31:22.552Z,9.80
2019-02-11T22:36:28.202Z,10.17
2019-02-11T22:41:33.608Z,8.07
2019-02-11T22:46:39.895Z,9.93
2019-02-11T22:51:45.023Z,9.90
2019-02-11T22:56:51.025Z,11.60
2019-02-11T23:01:56.550Z,14.17
2019-02-11T23:07:02.351Z,7.73
2019-02-11T23:12:08.106Z,10.20
2019-02-11T23:17:14.497Z,8.63
2019-02-11T23:22:19.952Z,12.10
2019-02-11T23:27:25.975Z,7.83
2019-02-11T23:32:31.890Z,9.27
2019-02-11T23:37:38.606Z,7.63
2019-02-11T23:42:44.601Z,7.70
2019-02-11T23:47:50.326Z,11.60
2019-02-11T23:52:56.305Z,10.70
2019-02-11T23:58:02.701Z,7.47
